Terminal Aerodrome Forecast
Issued by NWS

Home | Current Version | Previous Version | Text Only | Print | Product List | Glossary On
Versions: 1 2 3 4 5 6 7 8 9 10 11 12 13 14 15 16 17 18 19 20 21 22
000
FTUS43 KIND 260500
TAFLAF
TAF
KLAF 260526Z 2606/2706 24003KT P6SM OVC015
     FM261300 07005KT P6SM BKN020 BKN100
     FM270300 02004KT P6SM SCT020 OVC080
      AMD LTD TO CLD VIS AND WIND TIL 261400=

USA.gov is the U.S. government's official web portal to all federal, state and local government web resources and services.